Time;durP1;ratioP1;P1;durP2;ratioP2;P2;SDS_P1;SDS_P2;PMS_P1;PMS_P2;Temp;Humidity;BMP_temperature;BMP_pressure;BME280_temperature;BME280_humidity;BME280_pressure;Samples;Min_cycle;Max_cycle;Signal;HPM_P1;HPM_P2
2024/04/11 00:00:47;;;;;;;7.17;6.13;;;12.90;12.30;;;;;;5426122;26;20240;-81
2024/04/11 00:03:13;;;;;;;6.60;5.97;;;12.90;12.00;;;;;;5426433;26;20669;-81
2024/04/11 00:05:40;;;;;;;5.83;5.43;;;12.90;11.80;;;;;;5412046;26;20480;-81
2024/04/11 00:08:06;;;;;;;6.10;5.70;;;12.60;12.20;;;;;;5383791;26;20590;-82
2024/04/11 00:10:32;;;;;;;6.57;5.63;;;12.60;12.40;;;;;;5369948;26;20472;-81
2024/04/11 00:13:00;;;;;;;6.63;5.70;;;12.50;12.90;;;;;;5383151;26;20566;-82
2024/04/11 00:15:25;;;;;;;6.27;5.77;;;12.40;12.40;;;;;;5390778;26;20275;-81
2024/04/11 00:17:51;;;;;;;9.53;6.87;;;12.30;12.70;;;;;;5424666;26;20467;-82
2024/04/11 00:20:16;;;;;;;6.80;6.30;;;12.40;12.50;;;;;;5424962;26;20275;-81
2024/04/11 00:22:46;;;;;;;7.17;6.77;;;12.50;12.50;;;;;;5414601;26;20291;-81
2024/04/11 00:25:13;;;;;;;7.43;6.83;;;12.50;12.80;;;;;;5426044;26;20322;-81
2024/04/11 00:27:38;;;;;;;7.93;7.20;;;12.50;12.70;;;;;;5457624;26;20514;-81
2024/04/11 00:30:04;;;;;;;6.30;5.87;;;12.50;12.50;;;;;;5397342;26;20786;-81
2024/04/11 00:32:30;;;;;;;6.37;6.03;;;12.60;12.60;;;;;;5451197;26;20602;-81
2024/04/11 00:34:55;;;;;;;6.77;6.37;;;12.70;12.80;;;;;;5421879;26;20471;-81
2024/04/11 00:37:25;;;;;;;7.20;6.70;;;12.70;12.60;;;;;;5422880;26;20239;-81
2024/04/11 00:39:52;;;;;;;7.17;6.47;;;12.80;12.70;;;;;;5457396;26;20232;-81
2024/04/11 00:42:19;;;;;;;7.03;6.33;;;12.80;12.70;;;;;;5453823;26;20466;-81
2024/04/11 00:44:44;;;;;;;6.50;6.10;;;12.80;12.80;;;;;;5420544;26;20547;-81
2024/04/11 00:47:10;;;;;;;6.77;6.27;;;12.80;12.80;;;;;;5369962;26;20816;-81
2024/04/11 00:49:38;;;;;;;6.80;6.40;;;12.80;12.70;;;;;;5397282;26;20282;-81
2024/04/11 00:52:03;;;;;;;6.83;6.43;;;12.80;12.80;;;;;;5425861;26;20276;-81
2024/04/11 00:54:29;;;;;;;8.20;7.40;;;12.80;12.70;;;;;;5404314;26;20471;-81
2024/04/11 00:56:59;;;;;;;9.00;6.80;;;12.70;12.80;;;;;;5389383;26;20712;-81
2024/04/11 00:59:25;;;;;;;7.17;6.57;;;12.70;12.80;;;;;;5420796;26;20475;-81
2024/04/11 01:01:51;;;;;;;7.67;6.90;;;12.70;12.80;;;;;;5420102;26;20594;-81
2024/04/11 01:04:17;;;;;;;6.93;6.30;;;12.70;12.90;;;;;;5420690;26;20241;-81
2024/04/11 01:07:06;;;;;;;7.80;7.20;;;12.70;12.90;;;;;;5420070;26;20960;-81
2024/04/11 01:09:35;;;;;;;7.53;6.93;;;12.70;12.90;;;;;;5418728;26;20233;-81
2024/04/11 01:12:02;;;;;;;7.70;7.10;;;12.70;12.80;;;;;;5433437;26;20602;-81
2024/04/11 01:14:33;;;;;;;6.60;6.20;;;12.60;12.70;;;;;;5424165;26;20538;-81
2024/04/11 01:16:58;;;;;;;8.17;7.40;;;12.60;12.60;;;;;;5423735;26;20473;-81
2024/04/11 01:19:24;;;;;;;7.70;7.10;;;12.60;12.80;;;;;;5458291;26;20469;-81
2024/04/11 01:21:50;;;;;;;8.23;7.63;;;12.60;13.20;;;;;;5396770;26;20327;-81
2024/04/11 01:24:16;;;;;;;7.57;7.07;;;12.60;12.90;;;;;;5389230;26;20237;-81
2024/04/11 01:26:42;;;;;;;8.03;7.23;;;12.60;13.00;;;;;;5426691;26;20519;-81
2024/04/11 01:29:07;;;;;;;10.20;6.87;;;12.60;12.90;;;;;;5412037;26;20283;-81
2024/04/11 01:31:36;;;;;;;7.40;6.70;;;12.60;12.90;;;;;;5388665;26;20270;-81
2024/04/11 01:34:01;;;;;;;6.70;6.30;;;12.60;13.00;;;;;;5403506;26;20309;-81
2024/04/11 01:36:27;;;;;;;8.00;7.40;;;12.60;13.00;;;;;;5457600;26;20462;-81
2024/04/11 01:38:53;;;;;;;6.60;6.27;;;12.60;13.00;;;;;;5425770;26;20245;-81
2024/04/11 01:41:18;;;;;;;7.23;6.63;;;12.60;13.00;;;;;;5424412;26;20465;-81
2024/04/11 01:43:44;;;;;;;8.23;6.67;;;12.60;12.80;;;;;;5425592;26;20297;-81
2024/04/11 01:46:12;;;;;;;6.80;6.40;;;12.60;12.90;;;;;;5389854;26;20257;-81
2024/04/11 01:48:40;;;;;;;7.90;7.30;;;12.60;13.00;;;;;;5421180;26;20229;-81
2024/04/11 01:51:09;;;;;;;7.67;7.07;;;12.60;13.10;;;;;;5403993;26;20473;-81
2024/04/11 01:53:37;;;;;;;6.83;6.43;;;12.60;13.00;;;;;;5424939;26;20573;-81
2024/04/11 01:56:05;;;;;;;7.00;6.43;;;12.60;13.00;;;;;;5406129;26;20479;-81
2024/04/11 01:58:32;;;;;;;7.20;6.60;;;12.60;12.80;;;;;;5387540;26;20482;-81
2024/04/11 02:01:09;;;;;;;7.00;6.40;;;12.60;12.90;;;;;;5448314;26;20477;-81
2024/04/11 02:03:36;;;;;;;7.63;7.00;;;12.50;13.00;;;;;;5435231;26;21008;-81
2024/04/11 02:06:03;;;;;;;7.40;6.90;;;12.10;14.40;;;;;;5376670;26;20528;-81
2024/04/11 02:08:30;;;;;;;6.87;6.37;;;11.70;14.40;;;;;;5405899;26;21008;-81
2024/04/11 02:11:19;;;;;;;8.17;7.57;;;11.50;15.00;;;;;;5424422;26;20469;-81
2024/04/11 02:13:44;;;;;;;9.27;7.13;;;11.30;15.80;;;;;;5456036;26;20462;-81
2024/04/11 02:16:10;;;;;;;7.87;7.33;;;11.20;15.70;;;;;;5424270;26;20515;-81
2024/04/11 02:18:35;;;;;;;7.40;6.90;;;11.40;15.90;;;;;;5418618;26;20280;-81
2024/04/11 02:21:01;;;;;;;8.27;7.67;;;11.50;15.40;;;;;;5424043;26;20280;-81
2024/04/11 02:23:28;;;;;;;7.70;6.90;;;11.70;14.90;;;;;;5410484;26;20332;-81
2024/04/11 02:25:54;;;;;;;7.70;7.20;;;11.80;14.90;;;;;;5429670;26;20280;-81
2024/04/11 02:28:20;;;;;;;8.10;6.87;;;11.90;14.80;;;;;;5432311;26;20525;-81
2024/04/11 02:30:45;;;;;;;7.37;6.90;;;11.90;15.00;;;;;;5414460;26;20273;-82
2024/04/11 02:33:11;;;;;;;7.50;6.97;;;11.90;15.10;;;;;;5371447;26;20237;-81
2024/04/11 02:35:40;;;;;;;7.73;7.13;;;11.90;15.00;;;;;;5429304;26;20470;-82
2024/04/11 02:38:05;;;;;;;7.43;6.83;;;12.10;14.90;;;;;;5430120;26;20251;-81
2024/04/11 02:40:31;;;;;;;8.47;7.73;;;11.60;15.70;;;;;;5429227;26;20525;-81
2024/04/11 02:42:57;;;;;;;8.27;7.53;;;11.20;16.60;;;;;;5430661;26;20258;-82
2024/04/11 02:45:23;;;;;;;7.60;7.00;;;11.20;17.20;;;;;;5433779;26;20783;-82
2024/04/11 02:47:48;;;;;;;7.70;6.90;;;11.30;16.90;;;;;;5395120;26;20881;-82
2024/04/11 02:50:15;;;;;;;7.30;6.80;;;11.40;16.30;;;;;;5380957;26;20242;-82
2024/04/11 02:52:41;;;;;;;7.37;6.87;;;11.60;16.00;;;;;;5375249;26;20276;-82
2024/04/11 02:55:08;;;;;;;7.50;6.77;;;11.70;16.10;;;;;;5420039;26;20523;-81
2024/04/11 02:57:34;;;;;;;7.33;6.83;;;11.80;15.80;;;;;;5431635;26;20477;-82
2024/04/11 03:00:00;;;;;;;8.27;7.33;;;11.90;15.60;;;;;;5431081;26;20473;-81
2024/04/11 03:02:28;;;;;;;8.73;7.10;;;11.50;15.90;;;;;;5427060;26;20577;-81
2024/04/11 03:04:58;;;;;;;8.37;7.53;;;11.20;16.60;;;;;;5458834;26;20228;-82
2024/04/11 03:07:23;;;;;;;8.40;7.80;;;11.10;16.80;;;;;;5458926;26;21060;-81
2024/04/11 03:09:51;;;;;;;8.23;7.60;;;10.70;17.60;;;;;;5427564;26;20465;-82
2024/04/11 03:12:16;;;;;;;8.43;7.73;;;10.50;18.20;;;;;;5427790;26;20236;-82
2024/04/11 03:14:46;;;;;;;7.70;7.00;;;10.40;18.10;;;;;;5427444;26;20466;-81
2024/04/11 03:17:12;;;;;;;8.10;7.50;;;10.30;18.50;;;;;;5427891;26;20236;-81
2024/04/11 03:19:39;;;;;;;7.53;7.13;;;10.30;18.60;;;;;;5426677;26;20526;-81
2024/04/11 03:22:07;;;;;;;8.50;8.00;;;10.40;18.20;;;;;;5428078;26;20565;-82
2024/04/11 03:24:36;;;;;;;7.50;7.00;;;10.30;18.40;;;;;;5441577;26;20475;-81
2024/04/11 03:27:02;;;;;;;8.23;7.73;;;10.20;18.60;;;;;;5420006;26;20531;-81
2024/04/11 03:29:29;;;;;;;7.60;7.20;;;10.20;18.90;;;;;;5428788;26;20478;-81
2024/04/11 03:31:57;;;;;;;7.83;7.13;;;10.30;18.60;;;;;;5459694;26;20525;-81
2024/04/11 03:34:23;;;;;;;8.37;7.87;;;10.60;17.80;;;;;;5424386;26;20465;-81
2024/04/11 03:36:49;;;;;;;7.90;7.40;;;10.80;17.20;;;;;;5425533;26;20516;-81
2024/04/11 03:39:15;;;;;;;7.80;7.20;;;11.10;16.60;;;;;;5409778;26;21162;-81
2024/04/11 03:41:44;;;;;;;7.03;6.57;;;11.30;15.80;;;;;;5366619;26;20242;-81
2024/04/11 03:44:10;;;;;;;8.50;7.90;;;11.40;15.80;;;;;;5382531;26;20476;-81
2024/04/11 03:46:36;;;;;;;8.40;7.80;;;11.50;15.90;;;;;;5372324;26;20475;-81
2024/04/11 03:49:04;;;;;;;7.17;6.77;;;11.50;15.90;;;;;;5387782;26;20563;-81
2024/04/11 03:51:33;;;;;;;8.27;7.47;;;11.60;16.00;;;;;;5388539;26;20859;-81
2024/04/11 03:54:00;;;;;;;8.07;7.43;;;11.70;16.00;;;;;;5388561;26;20519;-81
2024/04/11 03:56:30;;;;;;;8.43;7.67;;;11.70;16.00;;;;;;5419520;26;20508;-81
2024/04/11 03:58:56;;;;;;;8.00;7.20;;;11.70;16.00;;;;;;5413762;26;20519;-81
2024/04/11 04:01:23;;;;;;;7.97;7.27;;;11.70;16.00;;;;;;5426093;26;20548;-81
2024/04/11 04:03:51;;;;;;;9.30;8.57;;;11.80;16.10;;;;;;5426145;26;20761;-80
2024/04/11 04:06:17;;;;;;;8.80;8.13;;;11.80;16.10;;;;;;5425586;26;20554;-81
2024/04/11 04:08:45;;;;;;;7.10;6.60;;;11.80;16.10;;;;;;5456935;26;20592;-81
2024/04/11 04:14:33;;;;;;;8.63;7.40;;;11.80;15.70;;;;;;5457498;26;20501;-81
2024/04/11 04:17:00;;;;;;;7.80;7.20;;;11.70;16.00;;;;;;5432422;26;20465;-81
2024/04/11 04:19:26;;;;;;;8.40;7.70;;;11.70;16.00;;;;;;5465103;26;20232;-81
2024/04/11 04:21:51;;;;;;;8.53;7.77;;;11.70;15.90;;;;;;5404101;26;20566;-80
2024/04/11 04:24:17;;;;;;;8.00;7.50;;;11.60;16.00;;;;;;5375564;26;20245;-81
2024/04/11 04:26:43;;;;;;;8.20;7.60;;;11.60;16.00;;;;;;5418956;26;20233;-81
2024/04/11 04:29:09;;;;;;;8.03;7.47;;;11.60;16.00;;;;;;5421071;26;20237;-80
2024/04/11 04:31:37;;;;;;;8.37;7.80;;;11.60;16.00;;;;;;5423591;26;20248;-80
2024/04/11 04:34:03;;;;;;;8.30;7.43;;;11.60;16.00;;;;;;5459283;26;20466;-80
2024/04/11 04:36:41;;;;;;;8.57;7.10;;;11.60;16.00;;;;;;5428997;26;20529;-80
2024/04/11 04:39:07;;;;;;;7.80;7.20;;;11.60;16.00;;;;;;5426296;26;20469;-80
2024/04/11 04:41:34;;;;;;;8.13;7.63;;;11.60;16.00;;;;;;5392316;26;20597;-80
2024/04/11 04:44:02;;;;;;;7.63;7.10;;;11.60;16.00;;;;;;5422244;26;20763;-80
2024/04/11 04:46:32;;;;;;;7.83;7.23;;;11.60;16.00;;;;;;5421772;26;20939;-81
2024/04/11 04:49:00;;;;;;;8.17;7.63;;;11.70;16.00;;;;;;5411655;26;20537;-81
2024/04/11 04:51:31;;;;;;;7.67;7.17;;;11.70;15.80;;;;;;5426800;26;20958;-81
2024/04/11 04:53:59;;;;;;;8.70;8.20;;;11.70;15.80;;;;;;5399763;26;20557;-80
2024/04/11 04:56:30;;;;;;;9.10;8.40;;;11.70;16.00;;;;;;5426019;26;20511;-81
2024/04/11 04:58:58;;;;;;;8.67;7.90;;;11.70;15.90;;;;;;5433793;26;20473;-82
2024/04/11 05:01:26;;;;;;;8.23;7.70;;;11.70;15.60;;;;;;5434378;26;20481;-82
2024/04/11 05:03:53;;;;;;;8.77;7.60;;;11.70;15.70;;;;;;5434468;26;20477;-81
2024/04/11 05:06:19;;;;;;;7.50;6.77;;;11.60;15.70;;;;;;5421145;26;20589;-82
2024/04/11 05:08:48;;;;;;;9.57;7.80;;;11.70;15.40;;;;;;5398291;26;20463;-81
2024/04/11 05:11:13;;;;;;;7.73;7.13;;;11.70;15.40;;;;;;5413989;26;20463;-82
2024/04/11 05:13:40;;;;;;;7.50;7.10;;;11.70;15.30;;;;;;5417764;26;20881;-82
2024/04/11 05:16:07;;;;;;;7.60;6.97;;;11.70;15.80;;;;;;5434507;26;20244;-80
2024/04/11 05:18:37;;;;;;;8.13;7.43;;;11.70;15.20;;;;;;5433954;26;20525;-82
2024/04/11 05:21:05;;;;;;;7.80;7.40;;;11.70;14.90;;;;;;5434266;26;20563;-81
2024/04/11 05:23:32;;;;;;;7.93;7.40;;;11.70;14.90;;;;;;5434155;26;20466;-81
2024/04/11 05:25:59;;;;;;;8.63;7.90;;;11.70;14.90;;;;;;5433369;26;20529;-82
2024/04/11 05:28:34;;;;;;;7.93;7.13;;;11.70;15.00;;;;;;5433016;26;20544;-82
2024/04/11 05:31:04;;;;;;;7.77;7.10;;;11.70;15.30;;;;;;5434278;26;20846;-82
2024/04/11 05:33:32;;;;;;;7.90;7.10;;;11.70;15.40;;;;;;5433651;26;20798;-82
2024/04/11 05:35:58;;;;;;;7.97;7.50;;;11.70;15.30;;;;;;5441380;26;20462;-82
2024/04/11 05:38:25;;;;;;;8.20;7.67;;;11.70;14.90;;;;;;5426121;26;20526;-81
2024/04/11 05:54:09;;;;;;;8.10;7.57;;;11.20;15.70;;;;;;1381586;24;20510;-80
2024/04/11 05:56:36;;;;;;;8.67;7.97;;;11.10;15.60;;;;;;5357534;26;20576;-80
2024/04/11 06:04:00;;;;;;;;;;;;;;;;;;;;;
2024/04/11 06:06:29;;;;;;;8.30;7.43;;;10.60;16.90;;;;;;5327648;26;20587;-79
2024/04/11 06:53:31;;;;;;;9.50;8.87;;;11.80;15.40;;;;;;4757848;21;20581;-80
2024/04/11 07:21:38;;;;;;;11.00;10.23;;;12.30;14.30;;;;;;5327470;21;20868;-81
2024/04/11 07:24:04;;;;;;;13.43;11.03;;;12.30;14.50;;;;;;5268931;27;20585;-79
2024/04/11 07:26:34;;;;;;;11.23;10.07;;;12.00;14.50;;;;;;5278707;26;20475;-79
2024/04/11 07:29:05;;;;;;;12.57;11.30;;;12.00;14.90;;;;;;5272093;27;20577;-79
2024/04/11 07:31:33;;;;;;;11.00;10.10;;;11.80;15.30;;;;;;5294525;27;20510;-78
2024/04/11 07:34:15;;;;;;;13.00;12.00;;;11.80;14.80;;;;;;5293826;26;20461;-79
2024/04/11 07:47:59;;;;;;;;;;;;;;;;;;;;;
2024/04/11 07:50:42;;;;;;;11.83;10.93;;;12.20;15.50;;;;;;5050661;28;20708;-78
2024/04/11 07:57:07;;;;;;;12.73;11.73;;;12.50;15.90;;;;;;5038602;28;20523;-77
2024/04/11 08:19:22;;;;;;;13.47;12.33;;;12.90;14.00;;;;;;5219473;27;20565;-77
2024/04/11 08:26:17;;;;;;;;;;;;;;;;;;;;;
2024/04/11 08:29:46;;;;;;;;;;;;;;;;;;;;;
2024/04/11 08:43:19;;;;;;;;;;;;;;;;;;;;;
2024/04/11 08:46:39;;;;;;;11.77;10.83;;;13.80;12.00;;;;;;5239143;27;20474;-76
2024/04/11 08:52:41;;;;;;;11.63;10.83;;;13.80;11.40;;;;;;5296774;26;20528;-77
2024/04/11 09:06:12;;;;;;;;;;;;;;;;;;;;;
2024/04/11 09:16:07;;;;;;;10.67;9.90;;;14.60;10.60;;;;;;5304033;26;20508;-79
2024/04/11 09:18:40;;;;;;;9.40;8.80;;;14.70;9.50;;;;;;5328688;26;20460;-80
2024/04/11 09:21:43;;;;;;;9.33;8.87;;;15.00;8.20;;;;;;5311974;26;20475;-79
2024/04/11 09:24:28;;;;;;;9.73;9.03;;;15.30;7.70;;;;;;5342193;26;20469;-79
2024/04/11 09:27:22;;;;;;;9.23;8.73;;;15.70;7.60;;;;;;5338261;26;20466;-79
2024/04/11 09:29:48;;;;;;;10.23;9.43;;;15.90;7.90;;;;;;5294598;26;20544;-78
2024/04/11 09:32:19;;;;;;;9.90;9.30;;;16.10;7.20;;;;;;5339712;26;20512;-78
2024/04/11 09:35:17;;;;;;;8.80;8.23;;;16.30;6.80;;;;;;5309179;26;20265;-79
2024/04/11 09:37:46;;;;;;;10.90;8.50;;;16.50;6.30;;;;;;5313029;26;20537;-79
2024/04/11 09:40:19;;;;;;;8.80;8.20;;;16.60;5.90;;;;;;5359223;21;20910;-80
2024/04/11 09:42:49;;;;;;;9.00;8.50;;;16.70;5.80;;;;;;5350355;26;20454;-78
2024/04/11 09:45:18;;;;;;;9.37;8.67;;;16.70;5.70;;;;;;5352338;26;20472;-78
2024/04/11 09:47:47;;;;;;;8.90;8.20;;;16.80;5.20;;;;;;5352021;26;20546;-79
2024/04/11 09:50:16;;;;;;;8.67;8.17;;;16.90;4.50;;;;;;5341245;26;20588;-79
2024/04/11 09:52:44;;;;;;;9.07;8.30;;;17.00;5.20;;;;;;5321584;26;20547;-79
2024/04/11 09:55:15;;;;;;;8.10;7.70;;;16.90;4.30;;;;;;5354092;26;20552;-79
2024/04/11 09:57:44;;;;;;;8.53;7.57;;;16.90;3.90;;;;;;5353251;26;20461;-79
2024/04/11 10:00:22;;;;;;;8.87;8.27;;;16.80;4.10;;;;;;5329494;26;20470;-80
2024/04/11 10:02:52;;;;;;;7.83;7.37;;;16.80;4.10;;;;;;5316161;26;20514;-78
2024/04/11 10:05:23;;;;;;;7.83;7.30;;;17.10;3.40;;;;;;5339444;26;20466;-80
2024/04/11 10:07:57;;;;;;;7.73;7.23;;;17.30;2.70;;;;;;5347493;26;20457;-79
2024/04/11 10:10:27;;;;;;;7.97;7.37;;;17.50;2.50;;;;;;5309935;26;20539;-80
2024/04/11 10:12:54;;;;;;;8.40;7.80;;;17.50;2.50;;;;;;5319015;26;20965;-79
2024/04/11 10:15:21;;;;;;;8.70;8.13;;;17.30;2.30;;;;;;5320077;26;20589;-78
2024/04/11 10:18:09;;;;;;;8.73;8.23;;;17.20;2.30;;;;;;5351578;26;20461;-80
2024/04/11 10:20:59;;;;;;;8.30;7.60;;;17.20;2.60;;;;;;5350770;26;20462;-79
2024/04/11 10:23:25;;;;;;;9.70;8.80;;;17.40;2.50;;;;;;5351128;26;20466;-78
2024/04/11 10:25:50;;;;;;;8.50;7.90;;;17.50;2.10;;;;;;5350341;26;20592;-79
2024/04/11 10:28:18;;;;;;;8.87;8.27;;;17.40;2.40;;;;;;5346265;26;20468;-80
2024/04/11 11:05:49;;;;;;;7.40;6.70;;;17.90;1.00;;;;;;5283089;27;20524;-80
2024/04/11 11:14:53;;;;;;;8.03;7.53;;;17.60;1.00;;;;;;4598144;24;21026;-77
2024/04/11 11:24:53;;;;;;;;;;;;;;;;;;;;;
2024/04/11 11:41:40;;;;;;;7.70;7.30;;;17.70;1.00;;;;;;5397176;21;20560;-78
2024/04/11 11:44:17;;;;;;;6.93;6.30;;;17.60;1.00;;;;;;5395721;26;20460;-78
2024/04/11 11:47:05;;;;;;;7.37;6.97;;;17.60;1.00;;;;;;5366858;26;21074;-78
2024/04/11 11:49:35;;;;;;;8.50;7.90;;;17.70;1.00;;;;;;5383763;26;20515;-77
2024/04/11 11:52:02;;;;;;;7.87;7.50;;;17.70;1.00;;;;;;5332447;26;20832;-77
2024/04/11 11:54:28;;;;;;;8.30;7.70;;;17.60;1.00;;;;;;5374458;26;20468;-80
2024/04/11 11:57:09;;;;;;;7.73;7.27;;;17.60;1.00;;;;;;5350214;26;20566;-79
2024/04/11 11:59:35;;;;;;;8.10;6.77;;;17.50;1.00;;;;;;5349771;26;20473;-77
2024/04/11 12:02:01;;;;;;;7.33;6.77;;;17.60;1.80;;;;;;5348569;26;20522;-77
2024/04/11 12:04:30;;;;;;;7.70;7.30;;;17.50;1.00;;;;;;5349752;26;20468;-77
2024/04/11 12:06:59;;;;;;;8.17;7.57;;;17.70;1.00;;;;;;5353960;26;20242;-78
2024/04/11 12:09:31;;;;;;;8.00;7.50;;;17.80;1.00;;;;;;5384799;26;20565;-77
2024/04/11 12:14:42;;;;;;;8.67;8.27;;;17.80;1.00;;;;;;5353670;26;20504;-77
2024/04/11 12:17:10;;;;;;;7.57;7.13;;;17.80;1.00;;;;;;5335342;26;20472;-77
2024/04/11 12:19:36;;;;;;;8.83;7.53;;;17.80;1.00;;;;;;5349759;26;20472;-78
2024/04/11 12:22:15;;;;;;;7.90;7.43;;;17.60;1.00;;;;;;5381753;26;20456;-79
2024/04/11 12:24:42;;;;;;;7.63;7.10;;;17.70;1.00;;;;;;5381774;26;20641;-78
2024/04/11 12:27:10;;;;;;;7.37;6.97;;;17.60;1.00;;;;;;5381590;26;20882;-78
2024/04/11 12:29:40;;;;;;;7.77;7.30;;;17.60;1.00;;;;;;5350798;26;20519;-78
2024/04/11 12:32:09;;;;;;;7.83;7.43;;;17.70;1.00;;;;;;5381540;26;20512;-76
2024/04/11 12:34:37;;;;;;;6.83;6.47;;;17.70;1.00;;;;;;5379779;26;20465;-76
2024/04/11 12:37:11;;;;;;;7.77;7.37;;;17.80;1.00;;;;;;5348410;26;20468;-76
2024/04/11 12:39:53;;;;;;;8.40;7.80;;;17.90;1.00;;;;;;5371798;26;20465;-78
2024/04/11 12:42:22;;;;;;;7.37;6.90;;;17.90;1.00;;;;;;5359257;26;20512;-77
2024/04/11 12:44:55;;;;;;;7.70;7.33;;;17.90;1.00;;;;;;5369315;26;21058;-77
2024/04/11 12:47:48;;;;;;;8.47;8.07;;;17.90;1.00;;;;;;5368313;26;20507;-77
2024/04/11 12:50:13;;;;;;;9.07;8.50;;;18.00;1.00;;;;;;5348297;26;20504;-77
2024/04/11 12:52:49;;;;;;;7.67;7.30;;;18.10;1.00;;;;;;5366338;26;20448;-77
2024/04/11 12:55:24;;;;;;;9.10;8.50;;;18.10;1.00;;;;;;5349915;26;20276;-77
2024/04/11 12:57:51;;;;;;;8.60;8.20;;;18.10;1.00;;;;;;5381394;26;20762;-77
2024/04/11 13:00:35;;;;;;;7.90;7.40;;;18.20;1.00;;;;;;5383689;26;20521;-77
2024/04/11 13:03:07;;;;;;;6.80;6.40;;;18.20;1.00;;;;;;5380395;26;20972;-77
2024/04/11 13:05:51;;;;;;;8.60;7.97;;;18.10;1.00;;;;;;5381629;26;20460;-78
2024/04/11 13:08:21;;;;;;;8.00;7.60;;;18.10;1.00;;;;;;5350918;26;20572;-79
2024/04/11 13:10:49;;;;;;;8.17;7.67;;;18.10;1.00;;;;;;5367495;26;20468;-78
2024/04/11 13:13:19;;;;;;;7.80;7.13;;;18.10;1.00;;;;;;5318907;26;20532;-78
2024/04/11 13:15:49;;;;;;;7.80;7.33;;;18.10;1.00;;;;;;5318467;26;20516;-77
2024/04/11 13:18:16;;;;;;;7.70;7.30;;;18.20;1.00;;;;;;5345357;26;20481;-77
2024/04/11 13:20:42;;;;;;;9.00;8.43;;;18.20;1.00;;;;;;5360530;26;20599;-78
2024/04/11 13:23:10;;;;;;;7.20;6.90;;;18.20;1.00;;;;;;5369789;26;20476;-78
2024/04/11 13:25:47;;;;;;;8.03;7.73;;;18.20;1.00;;;;;;5353719;26;20484;-79
2024/04/11 13:28:16;;;;;;;8.23;7.53;;;18.00;1.00;;;;;;5382874;26;20810;-77
2024/04/11 13:30:42;;;;;;;7.30;6.80;;;17.90;1.00;;;;;;5382365;26;20593;-78
2024/04/11 13:33:15;;;;;;;7.50;7.20;;;17.90;1.00;;;;;;5382666;26;20460;-76
2024/04/11 13:35:52;;;;;;;8.03;7.30;;;17.80;1.00;;;;;;5326122;26;20470;-77
2024/04/11 13:38:23;;;;;;;8.00;7.60;;;18.00;1.00;;;;;;5349330;26;20621;-78
2024/04/11 13:43:42;;;;;;;8.53;7.93;;;18.20;1.00;;;;;;5382852;26;20591;-77
2024/04/11 13:46:08;;;;;;;7.53;7.13;;;18.40;1.00;;;;;;5346549;26;20582;-76
2024/04/11 13:48:43;;;;;;;8.53;7.93;;;18.40;1.00;;;;;;5371546;26;20877;-76
2024/04/11 13:51:15;;;;;;;8.40;7.90;;;18.30;1.00;;;;;;5381815;26;20455;-76
2024/04/11 13:53:44;;;;;;;8.63;8.03;;;18.30;1.00;;;;;;5382438;26;20480;-76
2024/04/11 13:56:13;;;;;;;7.60;7.23;;;18.30;1.00;;;;;;5382347;26;20468;-76
2024/04/11 13:58:49;;;;;;;7.93;7.27;;;18.30;1.00;;;;;;5381660;26;21054;-76
2024/04/11 14:01:27;;;;;;;7.77;7.30;;;18.30;1.00;;;;;;5381828;26;20464;-78
2024/04/11 14:04:04;;;;;;;7.17;6.77;;;18.20;1.00;;;;;;5381804;26;20862;-76
2024/04/11 14:06:57;;;;;;;8.40;7.80;;;18.10;1.00;;;;;;5382232;26;20456;-76
2024/04/11 14:09:28;;;;;;;8.03;7.50;;;18.00;1.00;;;;;;5381333;26;20520;-77
2024/04/11 14:11:55;;;;;;;7.40;6.80;;;18.00;1.00;;;;;;5381673;26;20468;-77
2024/04/11 14:14:21;;;;;;;7.40;7.00;;;18.00;1.00;;;;;;5350768;26;20600;-77
2024/04/11 14:16:53;;;;;;;9.53;8.60;;;18.00;1.00;;;;;;5381908;26;20465;-77
2024/04/11 14:19:35;;;;;;;23.10;20.90;;;18.00;1.00;;;;;;5381753;26;20460;-77
2024/04/11 14:22:08;;;;;;;17.70;16.00;;;18.00;1.00;;;;;;5350469;26;20877;-77
2024/04/11 14:24:35;;;;;;;11.50;10.63;;;18.20;1.00;;;;;;5351217;26;20468;-76
2024/04/11 14:27:06;;;;;;;7.73;7.20;;;18.40;1.00;;;;;;5364516;26;20466;-77
2024/04/11 14:29:41;;;;;;;7.00;6.60;;;18.40;1.00;;;;;;5355872;26;21063;-77
2024/04/11 14:32:07;;;;;;;7.13;6.83;;;18.30;1.00;;;;;;5348385;26;20471;-77
2024/04/11 14:39:52;;;;;;;7.23;6.53;;;18.20;1.00;;;;;;5370137;26;20465;-77
2024/04/11 14:42:22;;;;;;;7.40;7.00;;;18.20;1.00;;;;;;5378092;26;20520;-78
2024/04/11 14:44:48;;;;;;;6.80;6.40;;;18.10;1.00;;;;;;5371956;26;20234;-76
2024/04/11 14:47:20;;;;;;;6.60;6.20;;;18.00;1.00;;;;;;5370086;26;21007;-76
2024/04/11 14:49:49;;;;;;;7.57;6.97;;;18.00;1.00;;;;;;5374421;26;20534;-77
2024/04/11 14:52:19;;;;;;;5.90;5.70;;;18.10;1.00;;;;;;5344002;26;20542;-77
2024/04/11 14:54:52;;;;;;;5.90;5.50;;;18.10;1.00;;;;;;5338585;26;20468;-76
2024/04/11 14:57:23;;;;;;;5.70;5.50;;;18.00;1.00;;;;;;5362294;26;20515;-76
2024/04/11 14:59:58;;;;;;;6.70;6.10;;;18.00;1.00;;;;;;5364969;26;20466;-77
2024/04/11 15:02:26;;;;;;;6.53;6.13;;;18.10;1.00;;;;;;5380533;26;21047;-77
2024/04/11 15:04:52;;;;;;;7.43;6.90;;;18.00;1.00;;;;;;5364996;26;20529;-77
2024/04/11 15:07:29;;;;;;;5.30;5.03;;;18.10;1.00;;;;;;5368462;26;20475;-77
2024/04/11 15:09:57;;;;;;;6.10;5.77;;;18.10;1.00;;;;;;5369463;26;20536;-77
2024/04/11 15:12:42;;;;;;;6.50;6.10;;;18.10;1.00;;;;;;5352325;26;20478;-77
2024/04/11 15:15:14;;;;;;;8.13;6.53;;;18.10;1.00;;;;;;5373478;26;21025;-78
2024/04/11 15:17:56;;;;;;;6.23;5.83;;;18.10;1.00;;;;;;5359275;26;20814;-77
2024/04/11 15:20:23;;;;;;;6.53;6.03;;;18.20;1.00;;;;;;5364879;26;20473;-77
2024/04/11 15:22:49;;;;;;;6.40;6.00;;;18.20;1.00;;;;;;5357988;26;20521;-77
2024/04/11 15:25:28;;;;;;;5.43;5.23;;;18.20;1.00;;;;;;5364049;26;20444;-78
2024/04/11 15:27:56;;;;;;;6.77;6.23;;;18.20;1.00;;;;;;5374515;26;20550;-76
2024/04/11 15:33:11;;;;;;;6.10;5.50;;;18.20;1.00;;;;;;5363807;26;20854;-77
2024/04/11 15:35:39;;;;;;;5.63;5.13;;;18.20;1.00;;;;;;5371750;26;20971;-77
2024/04/11 15:40:37;;;;;;;7.70;7.00;;;18.20;1.00;;;;;;5355984;26;20468;-77
2024/04/11 15:43:06;;;;;;;5.37;5.07;;;18.20;1.00;;;;;;5334647;26;20514;-77
2024/04/11 15:45:34;;;;;;;5.93;5.50;;;18.20;1.00;;;;;;5372321;26;20457;-76
2024/04/11 15:48:00;;;;;;;5.97;5.60;;;18.20;1.00;;;;;;5361444;26;20573;-77
2024/04/11 15:50:36;;;;;;;6.63;5.60;;;18.30;1.00;;;;;;5368792;26;20587;-77
2024/04/11 15:53:05;;;;;;;6.80;6.40;;;18.30;1.00;;;;;;5383191;26;20564;-77
2024/04/11 15:55:48;;;;;;;6.00;5.50;;;18.30;1.00;;;;;;5344388;26;20544;-78
2024/04/11 15:58:17;;;;;;;6.47;6.07;;;18.30;1.00;;;;;;5377697;26;20429;-77
2024/04/11 16:00:43;;;;;;;5.43;5.03;;;18.40;1.00;;;;;;5361397;26;20473;-77
2024/04/11 16:03:14;;;;;;;5.00;4.80;;;18.30;1.00;;;;;;5363583;26;20580;-77
2024/04/11 16:05:45;;;;;;;5.50;5.20;;;18.30;1.00;;;;;;5372393;26;20537;-77
2024/04/11 16:08:14;;;;;;;6.20;5.67;;;18.30;1.00;;;;;;5348465;26;20476;-79
2024/04/11 16:10:41;;;;;;;6.00;5.57;;;18.30;1.00;;;;;;5369086;26;20555;-78
2024/04/11 16:13:13;;;;;;;5.60;5.30;;;18.30;1.00;;;;;;5340975;26;20942;-78
2024/04/11 16:15:44;;;;;;;6.40;5.90;;;18.20;1.00;;;;;;5362744;26;20489;-77
2024/04/11 16:18:12;;;;;;;6.70;6.20;;;18.20;1.00;;;;;;5375882;26;20468;-77
2024/04/11 16:20:46;;;;;;;5.80;5.40;;;18.20;1.00;;;;;;5352246;26;20503;-77
2024/04/11 16:23:18;;;;;;;6.57;6.10;;;18.20;1.00;;;;;;5346507;26;20480;-78
2024/04/11 16:25:44;;;;;;;6.77;6.37;;;18.20;1.00;;;;;;5342473;26;21012;-77
2024/04/11 16:28:10;;;;;;;6.50;5.90;;;18.10;1.00;;;;;;5337053;26;20477;-78
2024/04/11 16:31:11;;;;;;;5.77;5.37;;;18.10;1.00;;;;;;5361985;26;20235;-78
2024/04/11 16:33:23;;;;;;;6.13;5.73;;;18.10;1.00;;;;;;5366605;26;20297;-78
2024/04/11 16:35:51;;;;;;;6.47;5.97;;;18.10;1.00;;;;;;5336699;26;20586;-77
2024/04/11 16:38:23;;;;;;;6.87;6.37;;;18.10;1.00;;;;;;5358177;26;20804;-78
2024/04/11 16:40:53;;;;;;;6.97;6.10;;;18.00;1.00;;;;;;5357036;26;20472;-78
2024/04/11 16:43:23;;;;;;;6.73;6.23;;;18.00;1.00;;;;;;5341231;26;20482;-78
2024/04/11 16:45:58;;;;;;;7.13;6.63;;;18.00;1.00;;;;;;5360218;26;20903;-79
2024/04/11 16:48:29;;;;;;;6.63;5.80;;;18.00;1.00;;;;;;5321413;26;20629;-79
2024/04/11 16:50:56;;;;;;;6.90;6.30;;;18.00;1.00;;;;;;5334657;26;20480;-78
2024/04/11 16:53:32;;;;;;;7.13;6.70;;;18.00;1.00;;;;;;5362484;26;20591;-78
2024/04/11 16:56:04;;;;;;;6.77;6.37;;;18.00;1.00;;;;;;5345866;26;20551;-78
2024/04/11 16:58:47;;;;;;;6.73;6.30;;;18.00;1.00;;;;;;5341071;26;20975;-78
2024/04/11 17:01:13;;;;;;;7.07;6.40;;;17.90;1.00;;;;;;5312332;26;20522;-78
2024/04/11 17:03:38;;;;;;;6.53;6.13;;;17.90;1.00;;;;;;5377674;26;20471;-78
2024/04/11 17:06:10;;;;;;;6.63;6.13;;;17.90;1.00;;;;;;5379598;26;21002;-80
2024/04/11 17:08:41;;;;;;;6.67;6.17;;;17.90;1.00;;;;;;5335162;26;20659;-78
2024/04/11 17:11:19;;;;;;;7.93;7.40;;;17.80;1.00;;;;;;5383723;26;20597;-78
2024/04/11 17:13:48;;;;;;;8.77;7.03;;;17.80;1.00;;;;;;5382036;26;20534;-78
2024/04/11 17:16:14;;;;;;;7.63;6.97;;;17.80;1.00;;;;;;5394088;26;20460;-79